Airfield :
LOGIN :

Register | Disclaimer

   EN    FR    IT 

 










Legend :    VFR   Marginal VFR   IFR   Intensive IFR   Very Intensive IFR
Visi :
Ceiling :
>= 8 km
>= 3000ft
5 to 8 km
1000 to 3000 ft
1500m to 5 km
500 to 1000 ft
800 to 1500m
200 to 500 ft
< 800m
< 200 ft
Symbols :   Thunderstorms  Fog  Heavy snow  Heavy precipitations  Wind > 20 kt
SIGMETs :     Misc.  Thunderstorms  Icing  Turbulence  Mountain Waves  Volcanic Ashes






- Airport Elevation : 1036 ft
- IATA code : CLJ


LRCL - Cluj-Napoca International

CURRENT METAR :
  • 131600Z 11007KT CAVOK 36/12 Q1011

EXPIRED METARs :
  • 131530Z 10008KT CAVOK 36/11 Q1012
  • 131500Z 08009KT 050V110 CAVOK 36/12 Q1011
  • 131430Z 10009KT CAVOK 37/12 Q1012
  • 131400Z 11005KT 060V140 CAVOK 37/11 Q1012
  • 131330Z 08010KT CAVOK 37/11 Q1012
  • 131300Z 09010KT 050V110 CAVOK 36/12 Q1012
  • 131230Z 10008KT 070V150 CAVOK 36/10 Q1012
  • 131200Z 09008KT CAVOK 36/11 Q1012
  • 131130Z 10009KT CAVOK 36/12 Q1012

TAF TAF LRCL
Valid from the 13 at 15:00 until the 14 at 00:00 UTC


131400Z 1315/1400 10008KT CAVOK



MET'MAP, your aeronautical weather chart ! - Copyright ORBIFLY December 2007 - Disclaimer

ORBIFLY MET'MAP TEAM :

Programming & Development : Alexandra Zaïnal
Original concept : Baudouin d'Aumeries
Technical & hardware support : Manuel Goepfert
Assistance : Marc-Olivier Méhu




SOURCES & CREDITS :

   NOAA